Weather History for Boundary Cnty AP, Bonners Fer, ID

Change the Weather History Date:

Monday, May 27, 2013

  Actual Average (KSZT) Record (KSZT)
Temperature  
Mean Temperature 57 °F -  
Max Temperature 64 °F 68 °F 91 °F (1936)
Min Temperature 50 °F 43 °F 28 °F (1918)
Degree Days  
Heating Degree Days 8    
Growing Degree Days 7 (Base 50)    
Moisture  
Dew Point 45 °F    
Average Humidity 67    
Maximum Humidity 88    
Minimum Humidity 40    
Precipitation  
Precipitation 0.00 in - - ()
Sea Level Pressure  
Sea Level Pressure 29.86 in    
Wind  
Wind Speed 2 mph (SSW)    
Max Wind Speed 9 mph    
Max Gust Speed -    
Visibility 10 miles    
Events Rain    
Averages and records for this station are not official NWS values.
T = Trace of Precipitation, MM = Missing Value Source: NWS Daily Summary

Daily Weather History Graph

Daily Weather History Graph

Search for Another Location

Airport:

Trip Planner

Search our weather history database for the weather conditions in past years. The results will help you decide how hot, cold, wet, or windy it might be!

Date:

Astronomy

May. 27, 2013 Rise Set
Actual Time 4:50 AM PDT 8:35 PM PDT
Civil Twilight 4:10 AM PDT 9:15 PM PDT
Nautical Twilight 3:15 AM PDT 10:10 PM PDT
Astronomical Twilight 1:56 AM PDT 11:31 PM PDT
Moon 11:10 PM PDT (5/27) 7:36 AM PDT (5/27)
Length of Visible Light 17h 04m
Length of Day
15h 44m
Waning Gibbous, 90% of the Moon is Illuminated
May 27
Waning Gibbous
May 31
Last Quarter
Jun 8
New
Jun 16
First Quarter
Jun 23
Full

Hourly Weather History & Observations

Time (PDT) Temp. Dew Point Humidity Pressure Visibility Wind Dir Wind Speed Gust Speed Precip Events Conditions
12:10 AM 53.6 °F 41.0 °F 62% 29.91 in 10.0 mi Calm Calm - N/A   Overcast
12:30 AM 53.6 °F 41.0 °F 62% 29.90 in 10.0 mi Calm Calm - N/A   Overcast
12:50 AM 53.6 °F 41.0 °F 62% 29.91 in 10.0 mi Calm Calm - N/A   Overcast
1:10 AM 51.8 °F 44.6 °F 76% 29.91 in 10.0 mi Calm Calm - N/A   Mostly Cloudy
1:30 AM 53.6 °F 44.6 °F 72% 29.91 in 10.0 mi Calm Calm - N/A   Overcast
1:50 AM 50.0 °F 44.6 °F 82% 29.91 in 10.0 mi Calm Calm - N/A   Overcast
2:10 AM 53.6 °F 42.8 °F 67% 29.92 in 10.0 mi Calm Calm - N/A   Overcast
2:30 AM 53.6 °F 44.6 °F 72% 29.92 in 10.0 mi Calm Calm - N/A   Overcast
2:50 AM 53.6 °F 44.6 °F 72% 29.92 in 10.0 mi Calm Calm - N/A   Overcast
3:10 AM 51.8 °F 44.6 °F 76% 29.92 in 10.0 mi Calm Calm - N/A   Overcast
3:30 AM 51.8 °F 44.6 °F 76% 29.92 in 10.0 mi Calm Calm - N/A   Overcast
3:50 AM 51.8 °F 42.8 °F 71% 29.92 in 10.0 mi South 3.5 mph - N/A   Overcast
4:10 AM 51.8 °F 44.6 °F 76% 29.92 in 10.0 mi Calm Calm - N/A   Overcast
4:30 AM 53.6 °F 44.6 °F 72% 29.92 in 10.0 mi Calm Calm - N/A   Overcast
4:50 AM 50.0 °F 44.6 °F 82% 29.92 in 10.0 mi Calm Calm - N/A   Overcast
5:10 AM 50.0 °F 44.6 °F 82% 29.93 in 10.0 mi Calm Calm - N/A   Mostly Cloudy
5:30 AM 50.0 °F 44.6 °F 82% 29.93 in 10.0 mi SSE 3.5 mph - N/A   Mostly Cloudy
5:50 AM 50.0 °F 44.6 °F 82% 29.93 in 10.0 mi Calm Calm - N/A   Overcast
6:10 AM 50.0 °F 44.6 °F 82% 29.93 in 10.0 mi Calm Calm - N/A   Overcast
6:30 AM 51.8 °F 44.6 °F 76% 29.93 in 10.0 mi Calm Calm - N/A   Overcast
6:50 AM 53.6 °F 44.6 °F 72% 29.92 in 10.0 mi Calm Calm - N/A   Overcast
7:10 AM 53.6 °F 46.4 °F 77% 29.92 in 10.0 mi Calm Calm - N/A   Overcast
7:30 AM 53.6 °F 46.4 °F 77% 29.92 in 10.0 mi Calm Calm - N/A   Overcast
7:50 AM 55.4 °F 46.4 °F 72% 29.93 in 10.0 mi South 3.5 mph - N/A   Overcast
8:10 AM 53.6 °F 46.4 °F 77% 29.93 in 10.0 mi Calm Calm - N/A   Overcast
8:30 AM 55.4 °F 46.4 °F 72% 29.93 in 10.0 mi Calm Calm - N/A   Overcast
8:50 AM 55.4 °F 46.4 °F 72% 29.92 in 10.0 mi Calm Calm - N/A   Overcast
9:10 AM 55.4 °F 46.4 °F 72% 29.91 in 10.0 mi Calm Calm - N/A   Overcast
9:30 AM 55.4 °F 46.4 °F 72% 29.91 in 10.0 mi Calm Calm - N/A   Overcast
9:50 AM 55.4 °F 46.4 °F 72% 29.91 in 10.0 mi Calm Calm - N/A   Overcast
10:10 AM 57.2 °F 46.4 °F 67% 29.90 in 10.0 mi South 4.6 mph - N/A   Overcast
10:30 AM 57.2 °F 46.4 °F 67% 29.90 in 10.0 mi ESE 3.5 mph - N/A   Overcast
10:50 AM 59.0 °F 46.4 °F 63% 29.89 in 10.0 mi South 4.6 mph - N/A   Overcast
11:10 AM 59.0 °F 46.4 °F 63% 29.88 in 10.0 mi NE 3.5 mph - N/A   Overcast
11:30 AM 59.0 °F 46.4 °F 63% 29.88 in 10.0 mi WSW 3.5 mph - N/A   Overcast
11:50 AM 59.0 °F 44.6 °F 59% 29.88 in 10.0 mi SSE 3.5 mph - N/A   Overcast
12:10 PM 59.0 °F 46.4 °F 63% 29.87 in 10.0 mi Calm Calm - N/A   Overcast
12:30 PM 59.0 °F 46.4 °F 63% 29.87 in 10.0 mi Calm Calm - N/A   Overcast
12:50 PM 60.8 °F 46.4 °F 59% 29.86 in 10.0 mi SW 3.5 mph - N/A   Overcast
1:10 PM 62.6 °F 44.6 °F 52% 29.85 in 10.0 mi East 4.6 mph - N/A   Overcast
1:30 PM 62.6 °F 44.6 °F 52% 29.85 in 10.0 mi South 8.1 mph - N/A   Overcast
1:50 PM 64.4 °F 44.6 °F 49% 29.84 in 10.0 mi South 6.9 mph - N/A   Overcast
2:10 PM 64.4 °F 42.8 °F 45% 29.84 in 10.0 mi SW 4.6 mph - N/A   Overcast
2:30 PM 62.6 °F 42.8 °F 48% 29.83 in 10.0 mi SW 6.9 mph - N/A   Overcast
2:50 PM 64.4 °F 39.2 °F 40% 29.83 in 10.0 mi South 8.1 mph - N/A   Overcast
3:10 PM 64.4 °F 41.0 °F 42% 29.82 in 10.0 mi SW 6.9 mph - N/A   Mostly Cloudy
3:30 PM 64.4 °F 41.0 °F 42% 29.82 in 10.0 mi South 4.6 mph - N/A   Mostly Cloudy
3:50 PM 64.4 °F 41.0 °F 42% 29.81 in 10.0 mi South 4.6 mph - N/A   Overcast
4:10 PM 64.4 °F 42.8 °F 45% 29.81 in 10.0 mi SSW 3.5 mph - N/A   Overcast
4:30 PM 64.4 °F 44.6 °F 49% 29.80 in 10.0 mi NNW 5.8 mph - N/A   Overcast
4:50 PM 64.4 °F 48.2 °F 56% 29.80 in 10.0 mi North 9.2 mph - N/A   Partly Cloudy
5:10 PM 62.6 °F 46.4 °F 55% 29.80 in 10.0 mi North 8.1 mph - N/A   Scattered Clouds
5:35 PM 62.6 °F 48.2 °F 59% 29.79 in 10.0 mi North 4.6 mph - N/A   Mostly Cloudy
5:50 PM 62.6 °F 46.4 °F 55% 29.78 in 10.0 mi North 4.6 mph - N/A   Scattered Clouds
6:10 PM 62.6 °F 46.4 °F 55% 29.78 in 10.0 mi North 3.5 mph - N/A   Mostly Cloudy
6:30 PM 62.6 °F 48.2 °F 59% 29.78 in 10.0 mi Calm Calm - N/A   Mostly Cloudy
6:50 PM 59.0 °F 50.0 °F 72% 29.78 in 10.0 mi North 3.5 mph - N/A   Partly Cloudy
7:10 PM 59.0 °F 50.0 °F 72% 29.78 in 10.0 mi NNE 3.5 mph - N/A   Clear
7:30 PM 59.0 °F 48.2 °F 67% 29.78 in 10.0 mi Calm Calm - N/A   Clear
7:50 PM 59.0 °F 48.2 °F 67% 29.77 in 10.0 mi Calm Calm - N/A   Clear
8:10 PM 57.2 °F 48.2 °F 72% 29.77 in 10.0 mi Calm Calm - N/A   Mostly Cloudy
8:30 PM 57.2 °F 50.0 °F 77% 29.77 in 10.0 mi Calm Calm - N/A   Overcast
8:50 PM 57.2 °F 46.4 °F 67% 29.78 in 10.0 mi SW 9.2 mph - N/A   Overcast
9:10 PM 57.2 °F 46.4 °F 67% 29.79 in 10.0 mi SW 8.1 mph - N/A   Overcast
9:30 PM 55.4 °F 44.6 °F 67% 29.79 in 10.0 mi SSW 6.9 mph - N/A   Overcast
9:50 PM 55.4 °F 46.4 °F 72% 29.79 in 8.0 mi SSW 4.6 mph - N/A Rain Light Rain
10:10 PM 53.6 °F 46.4 °F 77% 29.80 in 10.0 mi SSW 5.8 mph - N/A   Mostly Cloudy
10:30 PM 55.4 °F 46.4 °F 72% 29.80 in 10.0 mi SSW 5.8 mph - N/A   Overcast
10:50 PM 53.6 °F 46.4 °F 77% 29.80 in 10.0 mi SSW 6.9 mph - N/A   Overcast
11:10 PM 51.8 °F 48.2 °F 88% 29.80 in 10.0 mi SSW 5.8 mph - N/A   Overcast
11:30 PM 51.8 °F 48.2 °F 88% 29.80 in 10.0 mi SSW 4.6 mph - N/A   Overcast
11:50 PM 51.8 °F 46.4 °F 82% 29.79 in 10.0 mi SSW 4.6 mph - N/A   Overcast